Portada
METAR-TAF:

METAR-TAF

Aeropuertos :

Ilam, Irán

latitud: 33-35-09N, longitud: 046-24-20E, altitud: 1334 m

Observación

El informe se hizo hace 42 minutos, a las 02:00 UTC
Viento 4 kt del este-sureste
Temperatura 18°C
Humedad 26%
Presión 1021 hPa
Visibilidad: 9000 m

METAR: OICI 280200Z 12004KT 9000 NSC 18/M02 Q1020 A3014

Hora: 07:12 (02:42 UTC)

Pronóstico

El informe se hizo hace 3 horas y 42 minutos, a las 23:00 UTC
Pronóstico válido del 28 a las 00 UTC al 29 a las 06 UTC
Viento 8 kt del este-sureste
Visibilidad: 7000 m
Temporalmente
del 28 a las 01 UTC al 28 a las 06 UTC
Visibilidad: 4000 m
calima
Temporalmente
del 28 a las 10 UTC al 28 a las 15 UTC
Viento 12 kt del oeste

TAF: OICI 272300Z 2800/2906 12008KT 7000 NSC TEMPO 2801/2806 4000 HZ TEMPO 2810/2815 27012KT

Observaciones y pronósticos meteorológicos de más de 4000 aeropuertos (mensajes METAR y TAF).

Los puntos amarillos y rojos representan las estaciones disponibles.

Ponga el ratón en el punto deseado para ver el nombre de la estación.

Haga clic para ver las observaciones y los pronósticos meteorológicos.

Para cambiar el mapa : haga clic en los botones verdes con una cruz de color negro para hacer un zoom, en el botón verde con un guión para alejar o en las flechas verdes para mapas adyacentes.


METAR-TAF: